Latest Coastal Weather Observations for Karratha

IDW60701

Issued at 5:35 pm WST Friday 25 April 2014 (issued every 10 minutes, with the page automatically refreshed every 10 minutes)

About coastal observations | Map of coastal stations | Coastal observations for WA | Marine services | Other Formats
Station Details ID: 004083 Name: KARRATHA AERO Lat: -20.71 Lon: 116.77 Height: 5.3 m
Data from the previous 72 hours. | See also: Recent months at Karratha
Date/Time
WST
Temp

°C
Wind Pressure Rain
since 9am
mm
Weather Cloud Vis
km
Sea
Height
m
Swell
Dir
 
Speed
knots
Gust
knots
hPa Trend Height
m
Period
s
Dir
25/05:30pm 29.5 WNW 9 11 1008.7 - 0.0 - - 10 - - - -
25/05:00pm 30.2 WNW 9 12 1008.5 - 0.0 - - 10 - - - -
25/04:30pm 31.1 WNW 9 11 1008.4 - 0.0 - - 10 - - - -
25/04:00pm 31.5 NW 8 11 1008.3 - 0.0 - - 10 - - - -
25/03:30pm 32.0 NW 8 10 1008.2 - 0.0 - - 10 - - - -
25/03:00pm 32.1 NNW 7 9 1008.0 - 0.0 - - 10 - - - -
25/02:30pm 32.8 NW 8 11 1007.8 - 0.0 - - 10 - - - -
25/02:00pm 33.0 NW 8 10 1008.1 - 0.0 - - 10 - - - -
25/01:30pm 33.3 NW 8 11 1008.2 - 0.0 - - 10 - - - -
25/01:00pm 33.2 NNW 7 11 1008.5 - 0.0 - - 10 - - - -
25/12:30pm 33.4 WNW 6 9 1009.0 - 0.0 - - 10 - - - -
25/12:00pm 33.1 WNW 6 9 1009.4 - 0.0 - - 10 - - - -
25/11:30am 32.5 WSW 8 11 1010.2 - 0.0 - - 10 - - - -
25/11:00am 32.4 W 7 9 1010.5 - 0.0 - - 10 - - - -
25/10:30am 31.3 NNW 5 6 1010.4 - 0.0 - - 10 - - - -
25/10:00am 30.9 N 5 6 1010.4 - 0.0 - - 10 - - - -
25/09:30am 30.0 SSW 2 5 1010.4 - 0.0 - - 10 - - - -
25/09:00am 29.4 S 4 6 1010.5 - 0.0 - - 10 - - - -
25/08:30am 29.2 SW 4 6 1010.6 - 0.0 - - 10 - - - -
25/08:00am 27.0 SSW 2 4 1010.5 - 0.0 - - 10 - - - -
25/07:30am 24.8 SSW 4 5 1010.2 - 0.0 - - 10 - - - -
25/07:00am 22.1 SW 5 6 1009.8 - 0.0 - - 10 - - - -
25/06:30am 21.0 S 4 5 1009.6 - 0.0 - - 10 - - - -
25/06:00am 21.2 SSW 5 6 1009.4 - 0.0 - - 10 - - - -
25/05:30am 21.3 S 4 5 1009.2 - 0.0 - - 10 - - - -
25/05:00am 21.5 S 5 5 1008.9 - 0.0 - - 10 - - - -
25/04:30am 22.5 SW 6 7 1009.1 - 0.0 - - 10 - - - -
25/04:00am 22.4 SW 6 6 1009.1 - 0.0 - - 10 - - - -
25/03:30am 22.5 SW 5 6 1008.9 - 0.0 - - 10 - - - -
25/03:00am 22.9 SW 6 6 1009.1 - 0.0 - - 10 - - - -
25/02:30am 23.0 SW 6 6 1009.1 - 0.0 - - 10 - - - -
25/02:00am 23.7 SW 6 7 1009.2 - 0.0 - - 10 - - - -
25/01:30am 23.9 SW 7 8 1009.4 - 0.0 - - 10 - - - -
25/01:00am 24.2 SW 7 8 1009.5 - 0.0 - - 10 - - - -
25/12:30am 24.8 SW 6 8 1009.6 - 0.0 - - 10 - - - -
25/12:00am 24.1 SW 4 6 1009.8 - 0.0 - - 10 - - - -
 
Date/Time
WST
Temp

°C
Wind Pressure Rain
since 9am
mm
Weather Cloud Vis
km
Sea
Height
m
Swell
Dir
 
Speed
knots
Gust
knots
hPa Trend Height
m
Period
s
Dir
24/11:30pm 24.1 SW 4 6 1010.1 - 0.0 - - 10 - - - -
24/11:00pm 24.7 SW 4 6 1010.1 - 0.0 - - 10 - - - -
24/10:30pm 25.5 SW 6 7 1010.3 - 0.0 - - 10 - - - -
24/10:00pm 27.4 W 9 10 1010.4 - 0.0 - - 10 - - - -
24/09:30pm 27.8 W 11 12 1010.3 - 0.0 - - 10 - - - -
24/09:00pm 27.9 W 9 11 1010.3 - 0.0 - - 10 - - - -
24/08:30pm 28.1 W 10 12 1010.2 - 0.0 - - 10 - - - -
24/08:00pm 28.3 W 10 11 1010.0 - 0.0 - - 10 - - - -
24/07:30pm 28.7 W 9 10 1009.7 - 0.0 - - 10 - - - -
24/07:00pm 29.0 W 8 9 1009.4 - 0.0 - - 10 - - - -
24/06:30pm 29.2 W 8 9 1009.2 - 0.0 - - 10 - - - -
24/06:00pm 29.8 WNW 8 10 1008.9 - 0.0 - - 10 - - - -
24/05:30pm 30.6 WNW 9 11 1008.7 - 0.0 - - 10 - - - -
24/05:00pm 31.1 WNW 10 12 1008.3 - 0.0 - - 10 - - - -
24/04:30pm 32.0 WNW 10 13 1008.0 - 0.0 - - 10 - - - -
24/04:00pm 32.5 WNW 11 13 1007.9 - 0.0 - - 10 - - - -
24/03:30pm 32.9 WNW 11 14 1007.7 - 0.0 - - 10 - - - -
24/03:00pm 33.2 WNW 10 14 1007.6 - 0.0 - - 10 - - - -
24/02:30pm 34.3 WNW 9 11 1007.7 - 0.0 - - 10 - - - -
24/02:00pm 34.2 NW 8 11 1008.0 - 0.0 - - 10 - - - -
24/01:30pm 34.3 NW 9 12 1008.4 - 0.0 - - 10 - - - -
24/01:00pm 34.5 WNW 8 11 1008.8 - 0.0 - - 10 - - - -
24/12:30pm 33.9 WNW 7 11 1009.3 - 0.0 - - 10 - - - -
24/12:00pm 34.1 NW 8 11 1009.7 - 0.0 - - 10 - - - -
24/11:30am 33.7 WNW 7 9 1010.3 - 0.0 - - 10 - - - -
24/11:00am 33.0 NW 7 9 1010.7 - 0.0 - - 10 - - - -
24/10:30am 31.8 WNW 5 8 1011.0 - 0.0 - - 10 - - - -
24/10:00am 30.3 W 6 7 1011.1 - 0.0 - - 10 - - - -
24/09:30am 29.3 WSW 7 9 1011.4 - 0.0 - - 10 - - - -
24/09:00am 27.7 WSW 9 11 1011.3 - 0.0 - - 10 - - - -
24/08:30am 27.1 WSW 9 11 1011.2 - 0.0 - - 10 - - - -
24/08:00am 26.0 WSW 6 7 1010.9 - 0.0 - - 10 - - - -
24/07:30am 24.2 SW 4 5 1010.6 - 0.0 - - 10 - - - -
24/07:00am 22.3 WSW 4 5 1010.3 - 0.0 - - 10 - - - -
24/06:30am 21.2 SW 4 5 1010.1 - 0.0 - - 10 - - - -
24/06:00am 22.7 WSW 7 8 1009.9 - 0.0 - - 10 - - - -
24/05:30am 22.1 WSW 5 6 1009.9 - 0.0 - - 10 - - - -
24/05:00am 22.4 WSW 7 7 1009.7 - 0.0 - - 10 - - - -
24/04:30am 21.7 WSW 6 6 1009.4 - 0.0 - - 10 - - - -
24/04:00am 21.7 SW 6 7 1009.4 - 0.0 - - 10 - - - -
24/03:30am 21.8 SW 7 7 1009.5 - 0.0 - - 10 - - - -
24/03:00am 22.7 WSW 6 6 1009.2 - 0.0 - - 10 - - - -
24/02:30am 22.7 WSW 7 7 1009.3 - 0.0 - - 10 - - - -
24/02:00am 22.5 SW 6 7 1009.4 - 0.0 - - 10 - - - -
24/01:30am 23.1 SW 7 7 1009.9 - 0.0 - - 10 - - - -
24/01:00am 23.6 WSW 6 7 1010.3 - 0.0 - - 10 - - - -
24/12:30am 24.3 SW 6 8 1010.4 - 0.0 - - 10 - - - -
24/12:00am 24.5 WSW 7 7 1010.5 - 0.0 - - 10 - - - -
 
Date/Time
WST
Temp

°C
Wind Pressure Rain
since 9am
mm
Weather Cloud Vis
km
Sea
Height
m
Swell
Dir
 
Speed
knots
Gust
knots
hPa Trend Height
m
Period
s
Dir
23/11:30pm 24.7 WSW 6 7 1010.5 - 0.0 - - 10 - - - -
23/11:00pm 26.0 WSW 7 9 1010.9 - 0.0 - - 10 - - - -
23/10:30pm 26.8 WSW 8 10 1010.9 - 0.0 - - 10 - - - -
23/10:00pm 26.7 WSW 8 9 1011.2 - 0.0 - - 10 - - - -
23/09:30pm 27.2 WSW 8 11 1011.4 - 0.0 - - 10 - - - -
23/09:00pm 27.7 W 9 11 1011.4 - 0.0 - - 10 - - - -
23/08:30pm 28.1 W 10 11 1011.4 - 0.0 - - 10 - - - -
23/08:00pm 28.2 W 9 11 1011.4 - 0.0 - - 10 - - - -
23/07:30pm 28.3 W 8 10 1011.2 - 0.0 - - 10 - - - -
23/07:00pm 28.7 W 8 11 1010.9 - 0.0 - - 10 - - - -
23/06:30pm 28.8 WNW 7 9 1010.8 - 0.0 - - 10 - - - -
23/06:00pm 29.4 WNW 7 9 1010.5 - 0.0 - - 10 - - - -
23/05:30pm 30.2 WNW 9 11 1010.1 - 0.0 - - 10 - - - -
23/05:00pm 31.3 NNW 8 11 1009.8 - 0.0 - - 10 - - - -
23/04:30pm 31.7 NW 9 11 1009.4 - 0.0 - - 10 - - - -
23/04:00pm 32.5 NW 9 12 1009.3 - 0.0 - - 10 - - - -
23/03:30pm 32.5 NNW 9 11 1009.2 - 0.0 - - 10 - - - -
23/03:00pm 32.9 NNW 8 11 1009.4 - 0.0 - - 10 - - - -
23/02:30pm 33.5 N 9 12 1009.5 - 0.0 - - 10 - - - -
23/02:00pm 33.3 N 6 8 1009.5 - 0.0 - - 10 - - - -
23/01:30pm 34.8 N 7 9 1010.0 - 0.0 - - 10 - - - -
23/01:00pm 34.4 N 6 8 1010.1 - 0.0 - - 10 - - - -
23/12:30pm 34.4 N 7 10 1010.4 - 0.0 - - 10 - - - -
23/12:00pm 34.1 N 6 8 1010.9 - 0.0 - - 10 - - - -
23/11:30am 33.3 NNW 5 7 1011.4 - 0.0 - - 10 - - - -
23/11:00am 32.8 NNW 5 7 1011.7 - 0.0 - - 10 - - - -
23/10:30am 31.8 NNW 5 6 1012.1 - 0.0 - - 10 - - - -
23/10:00am 29.9 NW 5 6 1012.3 - 0.0 - - 10 - - - -
23/09:30am 31.3 S 2 5 1012.3 - 0.0 - - 10 - - - -
23/09:00am 29.6 SSE 2 5 1012.4 - 0.0 - - 10 - - - -
23/08:30am 27.6 SSW 3 5 1012.3 - 0.0 - - 10 - - - -
23/08:00am 25.9 WSW 4 5 1012.1 - 0.0 - - 10 - - - -
23/07:30am 24.4 SW 1 4 1012.0 - 0.0 - - 10 - - - -
23/07:00am 22.5 SSW 4 5 1011.7 - 0.0 - - 10 - - - -
23/06:30am 22.5 CALM 0 0 1011.6 - 0.0 - - 10 - - - -
23/06:00am 22.0 CALM 0 0 1011.6 - 0.0 - - 10 - - - -
23/05:30am 22.5 CALM 0 0 1011.4 - 0.0 - - 10 - - - -
23/05:00am 22.8 SW 3 4 1011.3 - 0.0 - - 10 - - - -
23/04:30am 23.0 SW 4 5 1011.1 - 0.0 - - 10 - - - -
23/04:00am 23.1 WSW 5 6 1011.2 - 0.0 - - 10 - - - -
23/03:30am 23.4 SW 6 7 1011.1 - 0.0 - - 10 - - - -
23/03:00am 23.8 SW 6 7 1011.2 - 0.0 - - 10 - - - -
23/02:30am 24.3 SW 7 7 1011.3 - 0.0 - - 10 - - - -
23/02:00am 24.2 SW 6 8 1011.5 - 0.0 - - 10 - - - -
23/01:30am 24.3 SW 7 8 1011.9 - 0.0 - - 10 - - - -
23/01:00am 24.2 SW 7 8 1012.2 - 0.0 - - 10 - - - -
23/12:30am 23.7 SSW 5 6 1012.4 - 0.0 - - 10 - - - -
23/12:00am 24.9 SSW 4 5 1012.5 - 0.0 - - 10 - - - -
 
Date/Time
WST
Temp

°C
Wind Pressure Rain
since 9am
mm
Weather Cloud Vis
km
Sea
Height
m
Swell
Dir
 
Speed
knots
Gust
knots
hPa Trend Height
m
Period
s
Dir
22/11:30pm 27.3 W 8 9 1012.4 - 0.0 - - 10 - - - -
22/11:00pm 27.6 W 9 11 1012.5 - 0.0 - - 10 - - - -
22/10:30pm 27.6 W 8 10 1012.8 - 0.0 - - 10 - - - -
22/10:00pm 27.6 W 6 8 1013.0 - 0.0 - - 10 - - - -
22/09:30pm 28.1 W 8 9 1013.1 - 0.0 - - 10 - - - -
22/09:00pm 28.3 W 8 9 1013.0 - 0.0 - - 10 - - - -
22/08:30pm 28.1 W 7 8 1012.7 - 0.0 - - 10 - - - -
22/08:00pm 28.4 NW 7 9 1012.4 - 0.0 - - 10 - - - -
22/07:30pm 28.5 NNW 8 10 1012.1 - 0.0 - - 10 - - - -
22/07:00pm 28.8 NNW 8 10 1011.7 - 0.0 - - 10 - - - -
22/06:30pm 29.1 NNW 7 9 1011.4 - 0.0 - - 10 - - - -
22/06:00pm 29.5 N 8 11 1011.2 - 0.0 - - 10 - - - -

Other Formats:

Comma delimited format used in spreadsheet applications
http://www.bom.gov.au/fwo/IDW60701/IDW60701.95307.axf

JavaScript Object Notation format (JSON) in row-major order
http://www.bom.gov.au/fwo/IDW60701/IDW60701.95307.json